createdAt,value
2019-02-05T00:00:37.715Z,62.53
2019-02-05T00:03:08.849Z,72.87
2019-02-05T00:05:37.529Z,65.60
2019-02-05T00:08:06.279Z,51.53
2019-02-05T00:10:34.958Z,47.10
2019-02-05T00:13:03.849Z,41.73
2019-02-05T00:15:32.981Z,38.73
2019-02-05T00:18:01.735Z,38.37
2019-02-05T00:20:30.419Z,40.77
2019-02-05T00:22:59.283Z,35.20
2019-02-05T00:25:28.007Z,38.50
2019-02-05T00:27:56.738Z,48.60
2019-02-05T00:30:26.078Z,49.90
2019-02-05T00:32:54.804Z,49.37
2019-02-05T00:35:23.527Z,48.80
2019-02-05T00:37:52.510Z,49.67
2019-02-05T00:40:21.356Z,59.07
2019-02-05T00:42:50.093Z,57.10
2019-02-05T00:45:20.115Z,55.73
2019-02-05T00:47:49.746Z,60.53
2019-02-05T00:50:19.577Z,57.57
2019-02-05T00:52:48.525Z,59.30
2019-02-05T00:55:20.636Z,58.83
2019-02-05T00:57:49.366Z,54.60
2019-02-05T01:00:27.370Z,55.67
2019-02-05T01:02:56.195Z,54.37
2019-02-05T01:05:25.030Z,54.57
2019-02-05T01:07:53.907Z,56.27
2019-02-05T01:10:24.445Z,54.93
2019-02-05T01:12:53.959Z,53.83
2019-02-05T01:15:24.921Z,56.53
2019-02-05T01:17:53.955Z,54.00
2019-02-05T01:20:23.536Z,51.73
2019-02-05T01:22:52.567Z,52.53
2019-02-05T01:25:22.530Z,56.23
2019-02-05T01:27:51.535Z,58.37
2019-02-05T01:30:25.208Z,56.23
2019-02-05T01:32:53.942Z,57.93
2019-02-05T01:35:23.275Z,55.43
2019-02-05T01:37:52.883Z,52.80
2019-02-05T01:40:26.157Z,55.53
2019-02-05T01:42:55.182Z,55.27
2019-02-05T01:45:24.870Z,53.93
2019-02-05T01:47:53.615Z,55.43
2019-02-05T01:50:26.844Z,52.97
2019-02-05T01:52:55.987Z,50.77
2019-02-05T01:55:24.891Z,54.77
2019-02-05T01:57:53.724Z,54.67
2019-02-05T02:00:24.922Z,60.07
2019-02-05T02:02:53.665Z,59.20
2019-02-05T02:05:22.399Z,63.47
2019-02-05T02:07:51.393Z,61.00
2019-02-05T02:10:23.157Z,62.33
2019-02-05T02:12:52.194Z,66.53
2019-02-05T02:15:21.074Z,63.13
2019-02-05T02:17:50.104Z,63.80
2019-02-05T02:20:20.410Z,62.40
2019-02-05T02:22:49.825Z,66.00
2019-02-05T02:25:18.962Z,68.60
2019-02-05T02:27:48.900Z,64.37
2019-02-05T02:30:23.851Z,63.83
2019-02-05T02:32:52.603Z,54.53
2019-02-05T02:35:21.322Z,50.87
2019-02-05T02:37:50.768Z,50.93
2019-02-05T02:40:19.511Z,51.47
2019-02-05T02:42:48.343Z,51.00
2019-02-05T02:45:17.749Z,52.47
2019-02-05T02:47:46.585Z,53.27
2019-02-05T02:50:19.709Z,52.27
2019-02-05T02:52:49.250Z,51.53
2019-02-05T02:55:17.983Z,63.00
2019-02-05T02:57:46.808Z,52.43
2019-02-05T03:00:23.034Z,54.53
2019-02-05T03:06:32.823Z,50.97
2019-02-05T03:09:01.634Z,53.40
2019-02-05T03:11:30.535Z,53.33
2019-02-05T03:13:59.275Z,55.90
2019-02-05T03:16:28.024Z,63.90
2019-02-05T03:18:56.977Z,59.77
2019-02-05T03:21:25.720Z,62.10
2019-02-05T03:23:54.458Z,65.77
2019-02-05T03:26:23.608Z,60.10
2019-02-05T03:28:52.339Z,58.93
2019-02-05T03:31:21.068Z,58.47
2019-02-05T03:33:49.847Z,55.23
2019-02-05T03:36:18.575Z,48.43
2019-02-05T03:38:47.313Z,53.37
2019-02-05T03:41:16.184Z,61.50
2019-02-05T03:43:45.401Z,57.10
2019-02-05T03:46:14.938Z,68.87
2019-02-05T03:48:44.517Z,67.40
2019-02-05T03:51:34.208Z,57.60
2019-02-05T03:54:08.617Z,52.40
2019-02-05T03:57:10.416Z,61.83
2019-02-05T03:59:51.050Z,55.13
2019-02-05T04:02:38.098Z,57.10
2019-02-05T04:05:24.950Z,56.37
2019-02-05T04:07:59.138Z,58.93
2019-02-05T04:10:42.833Z,58.37
2019-02-05T04:13:29.382Z,58.60
2019-02-05T04:16:23.765Z,55.80
2019-02-05T04:19:13.659Z,56.37
2019-02-05T04:21:48.096Z,57.73
2019-02-05T04:24:25.494Z,57.73
2019-02-05T04:27:12.035Z,61.07
2019-02-05T04:30:04.859Z,63.03
2019-02-05T04:32:39.581Z,66.23
2019-02-05T04:35:29.311Z,62.13
2019-02-05T04:38:18.521Z,63.20
2019-02-05T04:41:17.243Z,65.80
2019-02-05T04:43:51.554Z,65.97
2019-02-05T04:46:28.795Z,67.60
2019-02-05T04:49:24.665Z,73.97
2019-02-05T04:52:02.029Z,77.67
2019-02-05T04:54:36.754Z,77.93
2019-02-05T04:57:30.555Z,82.60
2019-02-05T05:00:34.127Z,84.27
2019-02-05T05:03:05.776Z,91.53
2019-02-05T05:05:49.275Z,104.60
2019-02-05T05:08:54.076Z,90.33
2019-02-05T05:11:25.591Z,76.53
2019-02-05T05:13:54.332Z,69.57
2019-02-05T05:16:23.071Z,72.40
2019-02-05T05:18:51.883Z,73.60
2019-02-05T05:21:20.833Z,74.00
2019-02-05T05:23:50.043Z,68.37
2019-02-05T05:26:19.187Z,70.63
2019-02-05T05:28:48.121Z,65.87
2019-02-05T05:31:16.871Z,66.97
2019-02-05T05:33:45.764Z,64.43
2019-02-05T05:36:14.602Z,64.23
2019-02-05T05:38:43.353Z,65.97
2019-02-05T05:41:12.183Z,51.90
2019-02-05T05:43:40.946Z,61.87
2019-02-05T05:46:18.399Z,58.27
2019-02-05T05:48:47.129Z,50.57
2019-02-05T05:51:15.855Z,57.47
2019-02-05T05:53:44.931Z,55.07
2019-02-05T05:56:13.703Z,58.50
2019-02-05T05:58:42.438Z,59.90
2019-02-05T06:01:11.211Z,59.50
2019-02-05T06:03:39.950Z,57.30
2019-02-05T06:06:08.680Z,67.07
2019-02-05T06:08:37.486Z,62.07
2019-02-05T06:11:06.220Z,63.43
2019-02-05T06:13:35.019Z,71.03
2019-02-05T06:16:04.401Z,96.20
2019-02-05T06:18:33.146Z,139.73
2019-02-05T06:21:01.884Z,138.53
2019-02-05T06:23:30.863Z,210.93
2019-02-05T06:25:59.611Z,192.90
2019-02-05T06:28:34.664Z,143.80
2019-02-05T06:30:59.435Z,130.30
2019-02-05T06:33:28.176Z,122.80
2019-02-05T06:35:56.917Z,122.53
2019-02-05T06:38:27.277Z,124.77
2019-02-05T06:40:56.015Z,124.63
2019-02-05T06:43:24.765Z,119.63
2019-02-05T06:45:53.747Z,113.83
2019-02-05T06:48:22.471Z,89.53
2019-02-05T06:50:51.208Z,90.37
2019-02-05T06:53:19.994Z,84.70
2019-02-05T06:55:48.717Z,67.63
2019-02-05T06:58:17.503Z,63.27
2019-02-05T07:00:46.710Z,58.73
2019-02-05T07:03:15.830Z,53.70
2019-02-05T07:05:44.560Z,45.33
2019-02-05T07:08:13.423Z,42.73
2019-02-05T07:10:42.150Z,38.10
2019-02-05T07:13:10.884Z,36.90
2019-02-05T07:15:39.658Z,35.47
2019-02-05T07:18:08.387Z,32.37
2019-02-05T07:20:37.391Z,32.00
2019-02-05T07:23:07.040Z,33.53
2019-02-05T07:25:35.782Z,32.00
2019-02-05T07:28:04.620Z,31.93
2019-02-05T07:30:33.594Z,33.30
2019-02-05T07:33:02.325Z,33.53
2019-02-05T07:35:31.067Z,31.77
2019-02-05T07:38:00.154Z,29.67
2019-02-05T07:40:28.885Z,34.33
2019-02-05T07:42:59.113Z,33.97
2019-02-05T07:45:27.997Z,34.50
2019-02-05T07:47:56.727Z,36.57
2019-02-05T07:50:27.062Z,30.83
2019-02-05T07:52:56.059Z,28.47
2019-02-05T07:55:25.269Z,28.57
2019-02-05T07:57:54.002Z,28.67
2019-02-05T08:00:25.690Z,27.83
2019-02-05T08:02:54.416Z,26.67
2019-02-05T08:05:31.581Z,26.27
2019-02-05T08:08:01.116Z,27.40
2019-02-05T08:10:30.221Z,28.20
2019-02-05T08:12:59.462Z,27.73
2019-02-05T08:15:33.230Z,31.73
2019-02-05T08:18:01.987Z,35.07
2019-02-05T08:20:30.944Z,32.77
2019-02-05T08:22:59.782Z,31.93
2019-02-05T08:25:28.522Z,32.17
2019-02-05T08:27:57.293Z,34.27
2019-02-05T08:30:40.736Z,32.97
2019-02-05T08:33:09.727Z,33.60
2019-02-05T08:35:38.568Z,32.03
2019-02-05T08:38:07.293Z,33.50
2019-02-05T08:40:36.511Z,32.97
2019-02-05T08:43:05.916Z,32.73
2019-02-05T08:45:36.877Z,32.57
2019-02-05T08:48:08.472Z,32.83
2019-02-05T08:50:37.394Z,33.20
2019-02-05T08:53:06.226Z,29.33
2019-02-05T08:55:35.121Z,29.80
2019-02-05T08:58:06.955Z,29.07
2019-02-05T09:00:37.779Z,30.80
2019-02-05T09:03:09.189Z,30.73
2019-02-05T09:05:38.139Z,29.67
2019-02-05T09:08:07.071Z,31.90
2019-02-05T09:10:37.697Z,30.37
2019-02-05T09:13:06.552Z,27.27
2019-02-05T09:15:35.268Z,28.33
2019-02-05T09:18:04.247Z,29.43
2019-02-05T09:20:32.982Z,28.83
2019-02-05T09:23:01.915Z,30.37
2019-02-05T09:25:30.780Z,29.37
2019-02-05T09:27:59.514Z,29.00
2019-02-05T09:30:33.678Z,29.17
2019-02-05T09:33:05.083Z,27.60
2019-02-05T09:35:33.818Z,28.17
2019-02-05T09:38:02.542Z,29.90
2019-02-05T09:40:33.307Z,28.43
2019-02-05T09:43:04.327Z,28.80
2019-02-05T09:45:33.730Z,26.90
2019-02-05T09:48:04.317Z,27.53
2019-02-05T09:50:44.202Z,28.13
2019-02-05T09:53:03.494Z,26.23
2019-02-05T09:55:32.260Z,26.37
2019-02-05T09:58:00.988Z,26.07
2019-02-05T10:00:35.310Z,26.73
2019-02-05T10:03:04.374Z,25.90
2019-02-05T10:05:34.754Z,25.07
2019-02-05T10:08:03.487Z,25.87
2019-02-05T10:10:32.302Z,26.57
2019-02-05T10:13:01.086Z,26.10
2019-02-05T10:15:32.434Z,26.37
2019-02-05T10:18:01.633Z,26.47
2019-02-05T10:20:30.572Z,25.03
2019-02-05T10:23:01.728Z,26.57
2019-02-05T10:25:30.814Z,26.90
2019-02-05T10:28:04.361Z,25.07
2019-02-05T10:30:38.184Z,25.17
2019-02-05T10:33:07.687Z,26.80
2019-02-05T10:35:36.576Z,25.33
2019-02-05T10:38:06.556Z,24.97
2019-02-05T10:40:35.236Z,24.10
2019-02-05T10:43:04.642Z,24.77
2019-02-05T10:45:34.960Z,26.23
2019-02-05T10:48:04.832Z,25.43
2019-02-05T10:50:34.798Z,26.73
2019-02-05T10:53:03.551Z,24.70
2019-02-05T10:55:32.227Z,25.77
2019-02-05T10:58:00.910Z,26.47
2019-02-05T11:00:33.104Z,25.80
2019-02-05T11:03:08.594Z,24.97
2019-02-05T11:05:37.651Z,26.80
2019-02-05T11:08:06.450Z,25.23
2019-02-05T11:10:35.246Z,27.17
2019-02-05T11:13:05.191Z,26.10
2019-02-05T11:15:33.982Z,23.80
2019-02-05T11:18:04.920Z,24.20
2019-02-05T11:20:33.772Z,24.97
2019-02-05T11:23:02.464Z,25.07
2019-02-05T11:25:31.353Z,25.47
2019-02-05T11:28:00.143Z,25.33
2019-02-05T11:33:18.262Z,26.27
2019-02-05T11:35:46.949Z,23.83
2019-02-05T11:38:15.736Z,26.63
2019-02-05T11:40:44.533Z,26.90
2019-02-05T11:43:13.227Z,25.03
2019-02-05T11:45:41.936Z,23.60
2019-02-05T11:48:13.991Z,23.33
2019-02-05T11:50:42.878Z,23.00
2019-02-05T11:53:11.570Z,23.37
2019-02-05T11:55:40.519Z,23.03
2019-02-05T11:58:09.208Z,22.87
2019-02-05T12:00:39.470Z,21.90
2019-02-05T12:03:09.830Z,21.67
2019-02-05T12:05:38.904Z,21.47
2019-02-05T12:08:07.799Z,21.50
2019-02-05T12:10:36.562Z,20.80
2019-02-05T12:13:05.352Z,20.93
2019-02-05T12:15:34.033Z,20.60
2019-02-05T12:18:02.777Z,21.23
2019-02-05T12:20:31.463Z,20.23
2019-02-05T12:23:00.427Z,19.27
2019-02-05T12:25:29.271Z,18.43
2019-02-05T12:27:58.061Z,17.93
2019-02-05T12:30:43.878Z,19.17
2019-02-05T12:33:02.400Z,16.47
2019-02-05T12:35:31.082Z,15.73
2019-02-05T12:37:59.768Z,15.67
2019-02-05T12:40:28.961Z,14.30
2019-02-05T12:42:57.859Z,14.67
2019-02-05T12:45:29.250Z,13.40
2019-02-05T12:47:57.982Z,14.33
2019-02-05T12:50:34.972Z,14.00
2019-02-05T12:53:04.466Z,13.60
2019-02-05T12:55:33.179Z,13.47
2019-02-05T12:58:01.869Z,13.70
2019-02-05T13:00:33.467Z,12.57
2019-02-05T13:03:02.768Z,12.70
2019-02-05T13:05:31.561Z,12.23
2019-02-05T13:08:00.588Z,12.20
2019-02-05T13:10:41.109Z,13.03
2019-02-05T13:13:10.231Z,13.07
2019-02-05T13:15:38.915Z,13.00
2019-02-05T13:18:07.802Z,12.57
2019-02-05T13:20:37.527Z,12.07
2019-02-05T13:23:07.116Z,12.20
2019-02-05T13:25:36.106Z,11.53
2019-02-05T13:28:07.254Z,12.07
2019-02-05T13:30:37.344Z,12.90
2019-02-05T13:33:08.144Z,11.50
2019-02-05T13:35:37.706Z,12.33
2019-02-05T13:38:06.809Z,12.70
2019-02-05T13:40:35.479Z,12.10
2019-02-05T13:43:05.425Z,12.40
2019-02-05T13:45:36.755Z,12.17
2019-02-05T13:48:07.057Z,11.93
2019-02-05T13:50:35.912Z,12.73
2019-02-05T13:53:05.508Z,13.23
2019-02-05T13:55:37.312Z,12.30
2019-02-05T13:58:06.551Z,12.27
2019-02-05T14:00:44.190Z,11.93
2019-02-05T14:03:13.343Z,13.23
2019-02-05T14:05:42.239Z,13.50
2019-02-05T14:08:10.921Z,12.80
2019-02-05T14:10:42.076Z,12.33
2019-02-05T14:13:10.775Z,13.17
2019-02-05T14:15:42.269Z,14.17
2019-02-05T14:18:11.428Z,14.00
2019-02-05T14:20:40.219Z,14.17
2019-02-05T14:23:08.913Z,13.57
2019-02-05T14:25:37.822Z,14.07
2019-02-05T14:28:06.717Z,13.53
2019-02-05T14:30:44.087Z,13.10
2019-02-05T14:33:12.849Z,13.73
2019-02-05T14:35:41.637Z,13.80
2019-02-05T14:38:10.671Z,13.57
2019-02-05T14:40:39.371Z,11.97
2019-02-05T14:43:08.156Z,13.30
2019-02-05T14:45:37.305Z,13.23
2019-02-05T14:48:06.999Z,13.10
2019-02-05T14:50:38.388Z,12.47
2019-02-05T14:53:08.440Z,14.60
2019-02-05T14:55:37.236Z,14.63
2019-02-05T14:58:08.223Z,13.63
2019-02-05T15:00:38.073Z,13.70
2019-02-05T15:03:12.060Z,14.67
2019-02-05T15:05:41.051Z,14.73
2019-02-05T15:08:10.487Z,15.17
2019-02-05T15:10:39.277Z,15.30
2019-02-05T15:13:08.576Z,16.43
2019-02-05T15:15:37.356Z,15.37
2019-02-05T15:18:07.488Z,16.50
2019-02-05T15:20:41.519Z,16.20
2019-02-05T15:23:10.542Z,17.43
2019-02-05T15:25:39.232Z,16.77
2019-02-05T15:28:08.406Z,17.63
2019-02-05T15:30:42.379Z,19.83
2019-02-05T15:33:32.376Z,22.07
2019-02-05T15:36:02.889Z,20.03
2019-02-05T15:38:31.847Z,18.87
2019-02-05T15:41:00.538Z,18.07
2019-02-05T15:43:29.690Z,19.63
2019-02-05T15:45:58.377Z,17.73
2019-02-05T15:48:28.546Z,19.67
2019-02-05T15:50:57.430Z,16.93
2019-02-05T15:53:26.401Z,17.33
2019-02-05T15:55:55.295Z,15.90
2019-02-05T15:58:24.471Z,17.87
2019-02-05T16:00:53.281Z,16.30
2019-02-05T16:03:21.948Z,16.63
2019-02-05T16:05:50.673Z,15.97
2019-02-05T16:08:22.383Z,16.63
2019-02-05T16:10:51.073Z,17.33
2019-02-05T16:13:19.916Z,23.27
2019-02-05T16:15:48.597Z,20.47
2019-02-05T16:18:17.312Z,17.50
2019-02-05T16:20:46.028Z,16.73
2019-02-05T16:23:14.810Z,16.27
2019-02-05T16:25:43.501Z,16.97
2019-02-05T16:28:12.332Z,16.90
2019-02-05T16:30:41.009Z,17.57
2019-02-05T16:33:09.810Z,18.60
2019-02-05T16:35:38.627Z,19.10
2019-02-05T16:38:07.315Z,19.17
2019-02-05T16:40:38.516Z,19.27
2019-02-05T16:43:07.518Z,20.33
2019-02-05T16:45:36.308Z,24.93
2019-02-05T16:48:05.403Z,33.90
2019-02-05T16:50:40.358Z,27.73
2019-02-05T16:53:09.841Z,28.93
2019-02-05T16:55:38.626Z,25.63
2019-02-05T16:58:07.869Z,24.43
2019-02-05T17:00:37.854Z,23.90
2019-02-05T17:03:07.647Z,24.13
2019-02-05T17:05:41.720Z,24.10
2019-02-05T17:08:10.789Z,21.50
2019-02-05T17:10:39.474Z,20.10
2019-02-05T17:13:08.218Z,22.27
2019-02-05T17:15:36.902Z,19.33
2019-02-05T17:18:06.543Z,22.70
2019-02-05T17:20:35.752Z,18.73
2019-02-05T17:23:05.521Z,18.23
2019-02-05T17:25:36.098Z,17.10
2019-02-05T17:28:06.365Z,23.07
2019-02-05T17:30:37.450Z,17.97
2019-02-05T17:33:06.547Z,17.47
2019-02-05T17:35:35.968Z,18.23
2019-02-05T17:38:06.950Z,17.60
2019-02-05T17:40:35.831Z,16.20
2019-02-05T17:43:04.876Z,16.83
2019-02-05T17:45:38.834Z,14.43
2019-02-05T17:48:10.634Z,14.23
2019-02-05T17:50:39.324Z,68.30
2019-02-05T17:53:08.006Z,13.87
2019-02-05T17:55:36.845Z,13.03
2019-02-05T17:58:06.446Z,12.77
2019-02-05T18:00:52.311Z,12.67
2019-02-05T18:03:21.285Z,13.13
2019-02-05T18:05:49.980Z,12.90
2019-02-05T18:08:18.707Z,13.00
2019-02-05T18:10:47.398Z,13.13
2019-02-05T18:13:16.087Z,13.63
2019-02-05T18:15:45.125Z,12.20
2019-02-05T18:18:14.096Z,11.77
2019-02-05T18:20:43.463Z,11.20
2019-02-05T18:23:12.284Z,12.00
2019-02-05T18:25:40.975Z,11.33
2019-02-05T18:28:09.656Z,11.33
2019-02-05T18:30:39.498Z,12.03
2019-02-05T18:33:08.209Z,10.97
2019-02-05T18:35:36.901Z,12.10
2019-02-05T18:38:09.105Z,11.13
2019-02-05T18:40:37.621Z,11.43
2019-02-05T18:43:06.629Z,12.00
2019-02-05T18:45:35.766Z,10.83
2019-02-05T18:48:05.162Z,10.87
2019-02-05T18:50:33.773Z,10.40
2019-02-05T18:53:02.601Z,10.90
2019-02-05T18:55:34.373Z,11.07
2019-02-05T18:58:09.562Z,10.87
2019-02-05T19:00:38.630Z,10.50
2019-02-05T19:03:14.992Z,10.37
2019-02-05T19:05:37.612Z,10.80
2019-02-05T19:08:06.877Z,10.70
2019-02-05T19:10:35.764Z,10.30
2019-02-05T19:13:04.858Z,10.83
2019-02-05T19:15:36.105Z,10.97
2019-02-05T19:18:05.970Z,10.63
2019-02-05T19:20:34.661Z,10.70
2019-02-05T19:23:04.818Z,10.23
2019-02-05T19:25:51.444Z,10.13
2019-02-05T19:28:24.581Z,10.00
2019-02-05T19:30:54.855Z,10.00
2019-02-05T19:33:27.304Z,10.10
2019-02-05T19:35:54.004Z,10.73
2019-02-05T19:38:22.704Z,10.20
2019-02-05T19:40:57.618Z,10.23
2019-02-05T19:43:23.342Z,23.00
2019-02-05T19:46:06.169Z,36.13
2019-02-05T19:48:36.441Z,38.77
2019-02-05T19:51:05.508Z,43.67
2019-02-05T19:56:38.087Z,70.40
2019-02-05T19:59:04.481Z,58.67
2019-02-05T20:01:33.169Z,41.53
2019-02-05T20:04:02.096Z,25.57
2019-02-05T20:06:30.794Z,40.00
2019-02-05T20:08:59.673Z,52.40
2019-02-05T20:11:28.504Z,37.93
2019-02-05T20:13:57.191Z,33.77
2019-02-05T20:16:35.701Z,26.80
2019-02-05T20:19:04.491Z,22.07
2019-02-05T20:21:42.456Z,20.33
2019-02-05T20:24:28.898Z,23.80
2019-02-05T20:26:57.633Z,31.10
2019-02-05T20:29:26.370Z,37.37
2019-02-05T20:31:55.099Z,37.07
2019-02-05T20:34:24.346Z,42.00
2019-02-05T20:36:53.082Z,40.83
2019-02-05T20:39:38.285Z,46.13
2019-02-05T20:42:07.095Z,45.93
2019-02-05T20:44:35.825Z,47.50
2019-02-05T20:47:05.029Z,40.73
2019-02-05T20:49:33.830Z,40.53
2019-02-05T20:52:02.554Z,39.43
2019-02-05T20:54:31.287Z,35.00
2019-02-05T20:57:00.133Z,36.50
2019-02-05T20:59:30.372Z,38.67
2019-02-05T21:01:59.268Z,45.70
2019-02-05T21:04:28.473Z,49.80
2019-02-05T21:06:59.671Z,51.53
2019-02-05T21:09:27.684Z,48.63
2019-02-05T21:11:56.650Z,47.83
2019-02-05T21:14:25.368Z,46.80
2019-02-05T21:16:54.106Z,50.50
2019-02-05T21:19:23.276Z,46.87
2019-02-05T21:21:52.470Z,34.57
2019-02-05T21:24:21.195Z,34.20
2019-02-05T21:26:49.974Z,32.03
2019-02-05T21:29:18.738Z,29.37
2019-02-05T21:31:47.474Z,34.00
2019-02-05T21:34:16.399Z,34.07
2019-02-05T21:36:45.079Z,32.30
2019-02-05T21:39:13.806Z,33.27
2019-02-05T21:41:42.708Z,31.47
2019-02-05T21:44:11.433Z,29.63
2019-02-05T21:46:40.169Z,27.93
2019-02-05T21:49:08.964Z,28.07
2019-02-05T21:51:40.882Z,27.43
2019-02-05T21:54:08.247Z,26.53
2019-02-05T21:56:37.012Z,25.40
2019-02-05T21:59:05.741Z,26.37
2019-02-05T22:01:34.505Z,23.70
2019-02-05T22:04:03.695Z,25.53
2019-02-05T22:06:32.932Z,20.70
2019-02-05T22:09:01.725Z,23.50
2019-02-05T22:11:30.888Z,27.80
2019-02-05T22:13:59.605Z,28.43
2019-02-05T22:16:28.330Z,25.60
2019-02-05T22:18:57.100Z,25.17
2019-02-05T22:21:25.903Z,26.20
2019-02-05T22:23:54.627Z,24.20
2019-02-05T22:26:23.809Z,25.13
2019-02-05T22:28:53.889Z,24.73
2019-02-05T22:31:22.757Z,26.77
2019-02-05T22:33:51.522Z,21.97
2019-02-05T22:36:20.253Z,19.83
2019-02-05T22:38:48.980Z,18.53
2019-02-05T22:41:18.588Z,18.03
2019-02-05T22:43:47.330Z,17.30
2019-02-05T22:46:16.050Z,18.77
2019-02-05T22:48:45.079Z,17.77
2019-02-05T22:51:13.965Z,15.37
2019-02-05T22:53:42.697Z,15.13
2019-02-05T22:56:11.776Z,16.60
2019-02-05T22:58:40.674Z,17.03
2019-02-05T23:01:18.190Z,17.27
2019-02-05T23:03:50.646Z,17.23
2019-02-05T23:06:34.705Z,16.50
2019-02-05T23:09:24.670Z,15.53
2019-02-05T23:12:05.186Z,14.20
2019-02-05T23:14:33.917Z,13.10
2019-02-05T23:17:03.022Z,13.07
2019-02-05T23:19:32.279Z,13.90
2019-02-05T23:22:01.043Z,14.27
2019-02-05T23:24:29.912Z,13.97
2019-02-05T23:26:59.040Z,15.00
2019-02-05T23:29:27.766Z,14.23
2019-02-05T23:31:56.628Z,14.17
2019-02-05T23:34:25.424Z,13.63
2019-02-05T23:36:54.133Z,12.20
2019-02-05T23:39:22.857Z,12.57
2019-02-05T23:42:00.890Z,12.23
2019-02-05T23:44:29.609Z,13.00
2019-02-05T23:46:58.618Z,12.03
2019-02-05T23:49:27.399Z,12.10
2019-02-05T23:51:56.185Z,13.33
2019-02-05T23:54:24.913Z,12.53
2019-02-05T23:56:53.759Z,12.33
2019-02-05T23:59:22.573Z,13.67
